sensor_id;sensor_type;location;lat;lon;timestamp;temperature;humidity
25640;DHT22;13497;48.322;16.204;2023-11-21T00:00:00;7.10;99.90
25640;DHT22;13497;48.322;16.204;2023-11-21T00:02:26;7.00;99.90
25640;DHT22;13497;48.322;16.204;2023-11-21T00:04:52;7.00;99.90
25640;DHT22;13497;48.322;16.204;2023-11-21T00:07:18;7.00;99.90
25640;DHT22;13497;48.322;16.204;2023-11-21T00:09:44;6.90;99.90
25640;DHT22;13497;48.322;16.204;2023-11-21T00:12:09;6.80;99.90
25640;DHT22;13497;48.322;16.204;2023-11-21T00:14:38;6.80;99.90
25640;DHT22;13497;48.322;16.204;2023-11-21T00:17:04;6.70;99.90
25640;DHT22;13497;48.322;16.204;2023-11-21T00:19:31;6.80;99.90
25640;DHT22;13497;48.322;16.204;2023-11-21T00:21:57;6.80;99.90
25640;DHT22;13497;48.322;16.204;2023-11-21T00:24:24;6.70;99.90
25640;DHT22;13497;48.322;16.204;2023-11-21T00:26:51;6.60;99.90
25640;DHT22;13497;48.322;16.204;2023-11-21T00:29:16;6.50;99.90
25640;DHT22;13497;48.322;16.204;2023-11-21T00:31:44;6.40;99.90
25640;DHT22;13497;48.322;16.204;2023-11-21T00:34:11;6.30;99.90
25640;DHT22;13497;48.322;16.204;2023-11-21T00:36:37;6.40;99.90
25640;DHT22;13497;48.322;16.204;2023-11-21T00:39:03;6.40;99.90
25640;DHT22;13497;48.322;16.204;2023-11-21T00:41:29;6.30;99.90
25640;DHT22;13497;48.322;16.204;2023-11-21T00:43:54;6.30;99.90
25640;DHT22;13497;48.322;16.204;2023-11-21T00:46:21;6.30;99.90
25640;DHT22;13497;48.322;16.204;2023-11-21T00:48:47;6.30;99.90
25640;DHT22;13497;48.322;16.204;2023-11-21T00:51:12;6.20;99.90
25640;DHT22;13497;48.322;16.204;2023-11-21T00:53:38;6.10;99.90
25640;DHT22;13497;48.322;16.204;2023-11-21T00:56:05;6.10;99.90
25640;DHT22;13497;48.322;16.204;2023-11-21T00:58:30;6.00;99.90
25640;DHT22;13497;48.322;16.204;2023-11-21T01:00:56;5.90;99.90
25640;DHT22;13497;48.322;16.204;2023-11-21T01:03:23;5.90;99.90
25640;DHT22;13497;48.322;16.204;2023-11-21T01:05:49;6.00;99.90
25640;DHT22;13497;48.322;16.204;2023-11-21T01:08:15;6.00;99.90
25640;DHT22;13497;48.322;16.204;2023-11-21T01:10:41;6.00;99.90
25640;DHT22;13497;48.322;16.204;2023-11-21T01:13:07;6.00;99.90
25640;DHT22;13497;48.322;16.204;2023-11-21T01:15:33;6.00;99.90
25640;DHT22;13497;48.322;16.204;2023-11-21T01:17:59;6.00;99.90
25640;DHT22;13497;48.322;16.204;2023-11-21T01:20:25;6.10;99.90
25640;DHT22;13497;48.322;16.204;2023-11-21T01:22:51;6.10;99.90
25640;DHT22;13497;48.322;16.204;2023-11-21T01:25:19;6.00;99.90
25640;DHT22;13497;48.322;16.204;2023-11-21T01:27:46;6.10;99.90
25640;DHT22;13497;48.322;16.204;2023-11-21T01:30:12;6.10;99.90
25640;DHT22;13497;48.322;16.204;2023-11-21T01:32:38;6.20;99.90
25640;DHT22;13497;48.322;16.204;2023-11-21T01:35:05;6.20;99.90
25640;DHT22;13497;48.322;16.204;2023-11-21T01:37:32;6.30;99.90
25640;DHT22;13497;48.322;16.204;2023-11-21T01:39:59;6.30;99.90
25640;DHT22;13497;48.322;16.204;2023-11-21T01:42:25;6.40;99.90
25640;DHT22;13497;48.322;16.204;2023-11-21T01:44:50;6.50;99.90
25640;DHT22;13497;48.322;16.204;2023-11-21T01:47:16;6.80;99.90
25640;DHT22;13497;48.322;16.204;2023-11-21T01:49:45;6.80;99.90
25640;DHT22;13497;48.322;16.204;2023-11-21T01:52:12;6.90;99.90
25640;DHT22;13497;48.322;16.204;2023-11-21T01:54:38;6.90;99.90
25640;DHT22;13497;48.322;16.204;2023-11-21T01:57:05;6.90;99.90
25640;DHT22;13497;48.322;16.204;2023-11-21T01:59:39;6.80;99.90
25640;DHT22;13497;48.322;16.204;2023-11-21T02:02:07;6.70;99.90
25640;DHT22;13497;48.322;16.204;2023-11-21T02:04:35;6.60;99.90
25640;DHT22;13497;48.322;16.204;2023-11-21T02:07:04;6.60;99.90
25640;DHT22;13497;48.322;16.204;2023-11-21T02:09:34;6.50;99.90
25640;DHT22;13497;48.322;16.204;2023-11-21T02:12:00;6.50;99.90
25640;DHT22;13497;48.322;16.204;2023-11-21T02:14:27;6.40;99.90
25640;DHT22;13497;48.322;16.204;2023-11-21T02:16:53;6.30;99.90
25640;DHT22;13497;48.322;16.204;2023-11-21T02:19:21;6.30;99.90
25640;DHT22;13497;48.322;16.204;2023-11-21T02:21:51;6.20;99.90
25640;DHT22;13497;48.322;16.204;2023-11-21T02:24:21;6.20;99.90
25640;DHT22;13497;48.322;16.204;2023-11-21T02:26:48;6.20;99.90
25640;DHT22;13497;48.322;16.204;2023-11-21T02:29:15;6.10;99.90
25640;DHT22;13497;48.322;16.204;2023-11-21T02:31:44;6.00;99.90
25640;DHT22;13497;48.322;16.204;2023-11-21T02:34:16;5.90;99.90
25640;DHT22;13497;48.322;16.204;2023-11-21T02:36:45;5.90;99.90
25640;DHT22;13497;48.322;16.204;2023-11-21T02:39:11;5.90;99.90
25640;DHT22;13497;48.322;16.204;2023-11-21T02:41:39;5.80;99.90
25640;DHT22;13497;48.322;16.204;2023-11-21T02:44:06;5.70;99.90
25640;DHT22;13497;48.322;16.204;2023-11-21T02:46:35;5.70;99.90
25640;DHT22;13497;48.322;16.204;2023-11-21T02:49:02;5.70;99.90
25640;DHT22;13497;48.322;16.204;2023-11-21T02:51:27;5.70;99.90
25640;DHT22;13497;48.322;16.204;2023-11-21T02:53:53;5.60;99.90
25640;DHT22;13497;48.322;16.204;2023-11-21T02:56:19;5.60;99.90
25640;DHT22;13497;48.322;16.204;2023-11-21T02:58:45;5.70;99.90
25640;DHT22;13497;48.322;16.204;2023-11-21T03:01:11;5.70;99.90
25640;DHT22;13497;48.322;16.204;2023-11-21T03:03:39;5.60;99.90
25640;DHT22;13497;48.322;16.204;2023-11-21T03:06:06;5.60;99.90
25640;DHT22;13497;48.322;16.204;2023-11-21T03:08:32;5.50;99.90
25640;DHT22;13497;48.322;16.204;2023-11-21T03:10:58;5.40;99.90
25640;DHT22;13497;48.322;16.204;2023-11-21T03:13:24;5.30;99.90
25640;DHT22;13497;48.322;16.204;2023-11-21T03:15:49;5.30;99.90
25640;DHT22;13497;48.322;16.204;2023-11-21T03:18:15;5.30;99.90
25640;DHT22;13497;48.322;16.204;2023-11-21T03:20:42;5.30;99.90
25640;DHT22;13497;48.322;16.204;2023-11-21T03:23:11;5.40;99.90
25640;DHT22;13497;48.322;16.204;2023-11-21T03:25:37;5.40;99.90
25640;DHT22;13497;48.322;16.204;2023-11-21T03:28:03;5.30;99.90
25640;DHT22;13497;48.322;16.204;2023-11-21T03:30:28;5.30;99.90
25640;DHT22;13497;48.322;16.204;2023-11-21T03:32:54;5.30;99.90
25640;DHT22;13497;48.322;16.204;2023-11-21T03:35:20;5.20;99.90
25640;DHT22;13497;48.322;16.204;2023-11-21T03:37:47;5.20;99.90
25640;DHT22;13497;48.322;16.204;2023-11-21T03:40:13;5.20;99.90
25640;DHT22;13497;48.322;16.204;2023-11-21T03:42:39;5.30;99.90
25640;DHT22;13497;48.322;16.204;2023-11-21T03:45:06;5.30;99.90
25640;DHT22;13497;48.322;16.204;2023-11-21T03:47:31;5.40;99.90
25640;DHT22;13497;48.322;16.204;2023-11-21T03:49:57;5.40;99.90
25640;DHT22;13497;48.322;16.204;2023-11-21T03:52:24;5.30;99.90
25640;DHT22;13497;48.322;16.204;2023-11-21T03:54:50;5.20;99.90
25640;DHT22;13497;48.322;16.204;2023-11-21T03:57:15;5.20;99.90
25640;DHT22;13497;48.322;16.204;2023-11-21T03:59:42;5.20;99.90
25640;DHT22;13497;48.322;16.204;2023-11-21T04:02:08;5.20;99.90
25640;DHT22;13497;48.322;16.204;2023-11-21T04:04:35;5.20;99.90
25640;DHT22;13497;48.322;16.204;2023-11-21T04:07:00;5.20;99.90
25640;DHT22;13497;48.322;16.204;2023-11-21T04:09:26;5.30;99.90
25640;DHT22;13497;48.322;16.204;2023-11-21T04:11:52;5.20;99.90
25640;DHT22;13497;48.322;16.204;2023-11-21T04:14:18;5.30;99.90
25640;DHT22;13497;48.322;16.204;2023-11-21T04:16:44;5.40;99.90
25640;DHT22;13497;48.322;16.204;2023-11-21T04:19:10;5.40;99.90
25640;DHT22;13497;48.322;16.204;2023-11-21T04:21:37;5.50;99.90
25640;DHT22;13497;48.322;16.204;2023-11-21T04:24:02;5.40;99.90
25640;DHT22;13497;48.322;16.204;2023-11-21T04:26:28;5.50;99.90
25640;DHT22;13497;48.322;16.204;2023-11-21T04:28:54;5.40;99.90
25640;DHT22;13497;48.322;16.204;2023-11-21T04:31:19;5.50;99.90
25640;DHT22;13497;48.322;16.204;2023-11-21T04:33:45;5.50;99.90
25640;DHT22;13497;48.322;16.204;2023-11-21T04:36:11;5.50;99.90
25640;DHT22;13497;48.322;16.204;2023-11-21T04:38:36;5.60;99.90
25640;DHT22;13497;48.322;16.204;2023-11-21T04:41:02;5.70;99.90
25640;DHT22;13497;48.322;16.204;2023-11-21T04:43:28;5.70;99.90
25640;DHT22;13497;48.322;16.204;2023-11-21T04:45:55;5.60;99.90
25640;DHT22;13497;48.322;16.204;2023-11-21T04:48:20;5.80;99.90
25640;DHT22;13497;48.322;16.204;2023-11-21T04:50:46;5.80;99.90
25640;DHT22;13497;48.322;16.204;2023-11-21T04:53:12;5.70;99.90
25640;DHT22;13497;48.322;16.204;2023-11-21T04:55:40;5.70;99.90
25640;DHT22;13497;48.322;16.204;2023-11-21T04:58:06;5.60;99.90
25640;DHT22;13497;48.322;16.204;2023-11-21T05:00:32;5.60;99.90
25640;DHT22;13497;48.322;16.204;2023-11-21T05:02:57;5.50;99.90
25640;DHT22;13497;48.322;16.204;2023-11-21T05:05:23;5.50;99.90
25640;DHT22;13497;48.322;16.204;2023-11-21T05:07:49;5.50;99.90
25640;DHT22;13497;48.322;16.204;2023-11-21T05:10:15;5.60;99.90
25640;DHT22;13497;48.322;16.204;2023-11-21T05:12:41;5.80;99.90
25640;DHT22;13497;48.322;16.204;2023-11-21T05:15:08;5.80;99.90
25640;DHT22;13497;48.322;16.204;2023-11-21T05:17:38;6.00;99.90
25640;DHT22;13497;48.322;16.204;2023-11-21T05:20:24;6.00;99.90
25640;DHT22;13497;48.322;16.204;2023-11-21T05:22:50;6.20;99.90
25640;DHT22;13497;48.322;16.204;2023-11-21T05:25:16;6.30;99.90
25640;DHT22;13497;48.322;16.204;2023-11-21T05:27:46;6.40;99.90
25640;DHT22;13497;48.322;16.204;2023-11-21T05:30:12;6.40;99.90
25640;DHT22;13497;48.322;16.204;2023-11-21T05:32:39;6.40;99.90
25640;DHT22;13497;48.322;16.204;2023-11-21T05:35:08;6.50;99.90
25640;DHT22;13497;48.322;16.204;2023-11-21T05:37:37;6.50;99.90
25640;DHT22;13497;48.322;16.204;2023-11-21T05:40:06;6.40;99.90
25640;DHT22;13497;48.322;16.204;2023-11-21T05:42:34;6.30;99.90
25640;DHT22;13497;48.322;16.204;2023-11-21T05:45:01;6.20;99.90
25640;DHT22;13497;48.322;16.204;2023-11-21T05:47:40;6.10;99.90
25640;DHT22;13497;48.322;16.204;2023-11-21T05:50:08;6.00;99.90
25640;DHT22;13497;48.322;16.204;2023-11-21T05:52:36;5.90;99.90
25640;DHT22;13497;48.322;16.204;2023-11-21T05:55:03;5.90;99.90
25640;DHT22;13497;48.322;16.204;2023-11-21T05:57:31;5.90;99.90
25640;DHT22;13497;48.322;16.204;2023-11-21T05:59:56;6.00;99.90
25640;DHT22;13497;48.322;16.204;2023-11-21T06:02:22;6.10;99.90
25640;DHT22;13497;48.322;16.204;2023-11-21T06:04:48;6.10;99.90
25640;DHT22;13497;48.322;16.204;2023-11-21T06:07:13;6.20;99.90
25640;DHT22;13497;48.322;16.204;2023-11-21T06:09:40;6.20;99.90
25640;DHT22;13497;48.322;16.204;2023-11-21T06:12:06;6.30;99.90
25640;DHT22;13497;48.322;16.204;2023-11-21T06:14:31;6.40;99.90
25640;DHT22;13497;48.322;16.204;2023-11-21T06:17:00;6.50;99.90
25640;DHT22;13497;48.322;16.204;2023-11-21T06:19:26;6.50;99.90
25640;DHT22;13497;48.322;16.204;2023-11-21T06:21:51;6.60;99.90
25640;DHT22;13497;48.322;16.204;2023-11-21T06:24:17;6.70;99.90
25640;DHT22;13497;48.322;16.204;2023-11-21T06:26:43;6.80;99.90
25640;DHT22;13497;48.322;16.204;2023-11-21T06:29:09;6.90;99.90
25640;DHT22;13497;48.322;16.204;2023-11-21T06:31:36;6.90;99.90
25640;DHT22;13497;48.322;16.204;2023-11-21T06:34:02;6.90;99.90
25640;DHT22;13497;48.322;16.204;2023-11-21T06:36:28;6.90;99.90
25640;DHT22;13497;48.322;16.204;2023-11-21T06:38:54;6.90;99.90
25640;DHT22;13497;48.322;16.204;2023-11-21T06:41:20;6.90;99.90
25640;DHT22;13497;48.322;16.204;2023-11-21T06:43:46;7.00;99.90
25640;DHT22;13497;48.322;16.204;2023-11-21T06:46:12;7.00;99.90
25640;DHT22;13497;48.322;16.204;2023-11-21T06:48:44;6.90;99.90
25640;DHT22;13497;48.322;16.204;2023-11-21T06:51:10;6.90;99.90
25640;DHT22;13497;48.322;16.204;2023-11-21T06:53:37;6.90;99.90
25640;DHT22;13497;48.322;16.204;2023-11-21T06:56:03;6.90;99.90
25640;DHT22;13497;48.322;16.204;2023-11-21T06:58:29;7.00;99.90
25640;DHT22;13497;48.322;16.204;2023-11-21T07:00:54;7.00;99.90
25640;DHT22;13497;48.322;16.204;2023-11-21T07:03:20;7.10;99.90
25640;DHT22;13497;48.322;16.204;2023-11-21T07:05:46;7.00;99.90
25640;DHT22;13497;48.322;16.204;2023-11-21T07:08:11;7.10;99.90
25640;DHT22;13497;48.322;16.204;2023-11-21T07:10:38;7.20;99.90
25640;DHT22;13497;48.322;16.204;2023-11-21T07:13:03;7.30;99.90
25640;DHT22;13497;48.322;16.204;2023-11-21T07:15:29;7.40;99.90
25640;DHT22;13497;48.322;16.204;2023-11-21T07:17:55;7.50;99.90
25640;DHT22;13497;48.322;16.204;2023-11-21T07:20:20;7.60;99.90
25640;DHT22;13497;48.322;16.204;2023-11-21T07:22:47;7.60;99.90
25640;DHT22;13497;48.322;16.204;2023-11-21T07:25:12;7.70;99.90
25640;DHT22;13497;48.322;16.204;2023-11-21T07:27:38;7.80;99.90
25640;DHT22;13497;48.322;16.204;2023-11-21T07:30:04;7.80;99.90
25640;DHT22;13497;48.322;16.204;2023-11-21T07:32:31;7.80;99.90
25640;DHT22;13497;48.322;16.204;2023-11-21T07:34:57;7.80;99.90
25640;DHT22;13497;48.322;16.204;2023-11-21T07:37:25;7.80;99.90
25640;DHT22;13497;48.322;16.204;2023-11-21T07:39:54;7.80;99.90
25640;DHT22;13497;48.322;16.204;2023-11-21T07:42:23;7.80;99.90
25640;DHT22;13497;48.322;16.204;2023-11-21T07:44:49;7.90;99.90
25640;DHT22;13497;48.322;16.204;2023-11-21T07:47:15;7.90;99.90
25640;DHT22;13497;48.322;16.204;2023-11-21T07:49:41;7.90;99.90
25640;DHT22;13497;48.322;16.204;2023-11-21T07:52:09;8.10;99.90
25640;DHT22;13497;48.322;16.204;2023-11-21T07:54:35;8.10;99.90
25640;DHT22;13497;48.322;16.204;2023-11-21T07:57:01;8.20;99.90
25640;DHT22;13497;48.322;16.204;2023-11-21T07:59:28;8.20;99.90
25640;DHT22;13497;48.322;16.204;2023-11-21T08:01:54;8.10;99.90
25640;DHT22;13497;48.322;16.204;2023-11-21T08:04:19;8.20;99.90
25640;DHT22;13497;48.322;16.204;2023-11-21T08:06:45;8.30;99.90
25640;DHT22;13497;48.322;16.204;2023-11-21T08:09:11;8.40;99.90
25640;DHT22;13497;48.322;16.204;2023-11-21T08:11:38;8.30;99.90
25640;DHT22;13497;48.322;16.204;2023-11-21T08:14:05;8.40;99.90
25640;DHT22;13497;48.322;16.204;2023-11-21T08:16:30;8.40;99.90
25640;DHT22;13497;48.322;16.204;2023-11-21T08:18:56;8.40;99.90
25640;DHT22;13497;48.322;16.204;2023-11-21T08:21:22;8.50;99.90
25640;DHT22;13497;48.322;16.204;2023-11-21T08:23:52;8.60;99.90
25640;DHT22;13497;48.322;16.204;2023-11-21T08:26:20;8.70;99.90
25640;DHT22;13497;48.322;16.204;2023-11-21T08:28:46;8.90;99.90
25640;DHT22;13497;48.322;16.204;2023-11-21T08:31:13;8.90;99.90
25640;DHT22;13497;48.322;16.204;2023-11-21T08:33:38;9.10;99.90
25640;DHT22;13497;48.322;16.204;2023-11-21T08:36:10;9.20;99.90
25640;DHT22;13497;48.322;16.204;2023-11-21T08:38:37;9.50;99.90
25640;DHT22;13497;48.322;16.204;2023-11-21T08:41:05;9.60;99.90
25640;DHT22;13497;48.322;16.204;2023-11-21T08:43:34;9.70;99.90
25640;DHT22;13497;48.322;16.204;2023-11-21T08:46:00;9.90;99.90
25640;DHT22;13497;48.322;16.204;2023-11-21T08:48:26;9.90;99.90
25640;DHT22;13497;48.322;16.204;2023-11-21T08:50:53;9.80;99.90
25640;DHT22;13497;48.322;16.204;2023-11-21T08:53:19;9.80;99.90
25640;DHT22;13497;48.322;16.204;2023-11-21T08:55:45;9.80;99.90
25640;DHT22;13497;48.322;16.204;2023-11-21T08:58:11;9.90;99.90
25640;DHT22;13497;48.322;16.204;2023-11-21T09:00:39;10.00;99.90
25640;DHT22;13497;48.322;16.204;2023-11-21T09:03:05;10.00;99.90
25640;DHT22;13497;48.322;16.204;2023-11-21T09:05:37;10.00;99.90
25640;DHT22;13497;48.322;16.204;2023-11-21T09:08:03;9.90;99.90
25640;DHT22;13497;48.322;16.204;2023-11-21T09:10:28;9.90;99.90
25640;DHT22;13497;48.322;16.204;2023-11-21T09:12:54;10.00;99.90
25640;DHT22;13497;48.322;16.204;2023-11-21T09:15:20;10.00;99.90
25640;DHT22;13497;48.322;16.204;2023-11-21T09:17:45;9.90;99.90
25640;DHT22;13497;48.322;16.204;2023-11-21T09:20:12;9.90;99.90
25640;DHT22;13497;48.322;16.204;2023-11-21T09:22:37;9.90;99.90
25640;DHT22;13497;48.322;16.204;2023-11-21T09:25:03;10.00;99.90
25640;DHT22;13497;48.322;16.204;2023-11-21T09:27:31;10.10;99.90
25640;DHT22;13497;48.322;16.204;2023-11-21T09:29:57;10.10;99.90
25640;DHT22;13497;48.322;16.204;2023-11-21T09:32:23;10.10;99.90
25640;DHT22;13497;48.322;16.204;2023-11-21T09:34:49;10.20;99.90
25640;DHT22;13497;48.322;16.204;2023-11-21T09:37:16;10.30;99.90
25640;DHT22;13497;48.322;16.204;2023-11-21T09:39:41;10.10;99.90
25640;DHT22;13497;48.322;16.204;2023-11-21T09:42:11;10.10;99.90
25640;DHT22;13497;48.322;16.204;2023-11-21T09:47:15;10.10;99.90
25640;DHT22;13497;48.322;16.204;2023-11-21T09:49:47;10.30;99.90
25640;DHT22;13497;48.322;16.204;2023-11-21T09:52:20;10.50;99.90
25640;DHT22;13497;48.322;16.204;2023-11-21T09:54:46;10.60;99.90
25640;DHT22;13497;48.322;16.204;2023-11-21T09:57:13;10.60;99.90
25640;DHT22;13497;48.322;16.204;2023-11-21T09:59:40;10.50;99.90
25640;DHT22;13497;48.322;16.204;2023-11-21T10:02:07;10.40;99.90
25640;DHT22;13497;48.322;16.204;2023-11-21T10:04:38;10.40;99.90
25640;DHT22;13497;48.322;16.204;2023-11-21T10:07:04;10.30;99.90
25640;DHT22;13497;48.322;16.204;2023-11-21T10:09:36;10.30;99.90
25640;DHT22;13497;48.322;16.204;2023-11-21T10:12:04;10.20;99.90
25640;DHT22;13497;48.322;16.204;2023-11-21T10:14:35;10.30;99.90
25640;DHT22;13497;48.322;16.204;2023-11-21T10:17:02;10.30;99.90
25640;DHT22;13497;48.322;16.204;2023-11-21T10:19:29;10.30;99.90
25640;DHT22;13497;48.322;16.204;2023-11-21T10:21:55;10.40;99.90
25640;DHT22;13497;48.322;16.204;2023-11-21T10:24:23;10.50;99.90
25640;DHT22;13497;48.322;16.204;2023-11-21T10:26:49;10.60;99.90
25640;DHT22;13497;48.322;16.204;2023-11-21T10:29:16;10.70;99.90
25640;DHT22;13497;48.322;16.204;2023-11-21T10:31:42;10.70;99.90
25640;DHT22;13497;48.322;16.204;2023-11-21T10:34:17;10.80;99.90
25640;DHT22;13497;48.322;16.204;2023-11-21T10:36:44;10.90;99.90
25640;DHT22;13497;48.322;16.204;2023-11-21T10:39:17;10.80;99.90
25640;DHT22;13497;48.322;16.204;2023-11-21T10:41:44;11.00;99.90
25640;DHT22;13497;48.322;16.204;2023-11-21T10:44:13;11.10;99.90
25640;DHT22;13497;48.322;16.204;2023-11-21T10:46:40;11.00;99.90
25640;DHT22;13497;48.322;16.204;2023-11-21T10:49:08;10.90;99.90
25640;DHT22;13497;48.322;16.204;2023-11-21T10:51:34;10.90;99.90
25640;DHT22;13497;48.322;16.204;2023-11-21T10:54:00;10.90;99.90
25640;DHT22;13497;48.322;16.204;2023-11-21T10:56:26;10.90;99.90
25640;DHT22;13497;48.322;16.204;2023-11-21T10:58:52;11.00;99.90
25640;DHT22;13497;48.322;16.204;2023-11-21T11:01:19;11.10;99.90
25640;DHT22;13497;48.322;16.204;2023-11-21T11:03:47;11.20;99.90
25640;DHT22;13497;48.322;16.204;2023-11-21T11:06:14;11.20;99.90
25640;DHT22;13497;48.322;16.204;2023-11-21T11:08:40;11.40;99.90
25640;DHT22;13497;48.322;16.204;2023-11-21T11:11:06;11.60;99.90
25640;DHT22;13497;48.322;16.204;2023-11-21T11:13:32;11.70;99.90
25640;DHT22;13497;48.322;16.204;2023-11-21T11:15:59;11.60;99.90
25640;DHT22;13497;48.322;16.204;2023-11-21T11:18:30;11.70;99.90
25640;DHT22;13497;48.322;16.204;2023-11-21T11:29:23;11.50;99.90
25640;DHT22;13497;48.322;16.204;2023-11-21T11:32:16;11.70;99.90
25640;DHT22;13497;48.322;16.204;2023-11-21T11:35:09;11.80;99.90
25640;DHT22;13497;48.322;16.204;2023-11-21T11:37:36;11.90;99.90
25640;DHT22;13497;48.322;16.204;2023-11-21T11:40:06;11.80;99.90
25640;DHT22;13497;48.322;16.204;2023-11-21T11:42:32;11.80;99.90
25640;DHT22;13497;48.322;16.204;2023-11-21T11:44:58;11.80;99.90
25640;DHT22;13497;48.322;16.204;2023-11-21T11:47:29;11.70;99.90
25640;DHT22;13497;48.322;16.204;2023-11-21T11:50:10;11.50;99.90
25640;DHT22;13497;48.322;16.204;2023-11-21T11:52:43;11.50;99.90
25640;DHT22;13497;48.322;16.204;2023-11-21T11:55:11;11.50;99.90
25640;DHT22;13497;48.322;16.204;2023-11-21T11:57:38;11.40;99.90
25640;DHT22;13497;48.322;16.204;2023-11-21T12:00:07;11.40;99.90
25640;DHT22;13497;48.322;16.204;2023-11-21T12:02:37;11.40;99.90
25640;DHT22;13497;48.322;16.204;2023-11-21T12:05:22;11.40;99.90
25640;DHT22;13497;48.322;16.204;2023-11-21T12:07:52;11.30;99.90
25640;DHT22;13497;48.322;16.204;2023-11-21T12:10:26;11.30;99.90
25640;DHT22;13497;48.322;16.204;2023-11-21T12:12:55;11.30;99.90
25640;DHT22;13497;48.322;16.204;2023-11-21T12:15:21;11.40;99.90
25640;DHT22;13497;48.322;16.204;2023-11-21T12:17:48;11.50;99.90
25640;DHT22;13497;48.322;16.204;2023-11-21T12:20:16;11.50;99.90
25640;DHT22;13497;48.322;16.204;2023-11-21T12:22:44;11.50;99.90
25640;DHT22;13497;48.322;16.204;2023-11-21T12:25:16;11.50;99.90
25640;DHT22;13497;48.322;16.204;2023-11-21T12:27:47;11.50;99.90
25640;DHT22;13497;48.322;16.204;2023-11-21T12:30:16;11.40;99.90
25640;DHT22;13497;48.322;16.204;2023-11-21T12:32:52;11.30;99.90
25640;DHT22;13497;48.322;16.204;2023-11-21T12:35:24;11.10;99.90
25640;DHT22;13497;48.322;16.204;2023-11-21T12:37:51;11.10;99.90
25640;DHT22;13497;48.322;16.204;2023-11-21T12:40:18;11.10;99.90
25640;DHT22;13497;48.322;16.204;2023-11-21T12:42:55;11.00;99.90
25640;DHT22;13497;48.322;16.204;2023-11-21T12:45:26;11.00;99.90
25640;DHT22;13497;48.322;16.204;2023-11-21T12:48:04;11.00;99.90
25640;DHT22;13497;48.322;16.204;2023-11-21T12:50:34;10.90;99.90
25640;DHT22;13497;48.322;16.204;2023-11-21T12:53:08;10.90;99.90
25640;DHT22;13497;48.322;16.204;2023-11-21T12:55:35;10.90;99.90
25640;DHT22;13497;48.322;16.204;2023-11-21T12:58:04;10.80;99.90
25640;DHT22;13497;48.322;16.204;2023-11-21T13:00:45;10.90;99.90
25640;DHT22;13497;48.322;16.204;2023-11-21T13:03:13;10.90;99.90
25640;DHT22;13497;48.322;16.204;2023-11-21T13:05:43;11.00;99.90
25640;DHT22;13497;48.322;16.204;2023-11-21T13:08:16;11.00;99.90
25640;DHT22;13497;48.322;16.204;2023-11-21T13:10:45;11.00;99.90
25640;DHT22;13497;48.322;16.204;2023-11-21T13:13:14;11.10;99.90
25640;DHT22;13497;48.322;16.204;2023-11-21T13:15:53;11.00;99.90
25640;DHT22;13497;48.322;16.204;2023-11-21T13:18:23;10.90;99.90
25640;DHT22;13497;48.322;16.204;2023-11-21T13:20:49;10.90;99.90
25640;DHT22;13497;48.322;16.204;2023-11-21T13:23:15;10.80;99.90
25640;DHT22;13497;48.322;16.204;2023-11-21T13:25:42;10.70;99.90
25640;DHT22;13497;48.322;16.204;2023-11-21T13:28:11;10.70;99.90
25640;DHT22;13497;48.322;16.204;2023-11-21T13:30:37;10.60;99.90
25640;DHT22;13497;48.322;16.204;2023-11-21T13:33:06;10.60;99.90
25640;DHT22;13497;48.322;16.204;2023-11-21T13:35:34;10.60;99.90
25640;DHT22;13497;48.322;16.204;2023-11-21T13:38:09;10.50;99.90
25640;DHT22;13497;48.322;16.204;2023-11-21T13:40:36;10.50;99.90
25640;DHT22;13497;48.322;16.204;2023-11-21T13:43:18;10.40;99.90
25640;DHT22;13497;48.322;16.204;2023-11-21T13:45:45;10.40;99.90
25640;DHT22;13497;48.322;16.204;2023-11-21T13:48:12;10.40;99.90
25640;DHT22;13497;48.322;16.204;2023-11-21T13:50:43;10.40;99.90
25640;DHT22;13497;48.322;16.204;2023-11-21T13:53:26;10.40;99.90
25640;DHT22;13497;48.322;16.204;2023-11-21T13:55:53;10.30;99.90
25640;DHT22;13497;48.322;16.204;2023-11-21T13:58:25;10.30;99.90
25640;DHT22;13497;48.322;16.204;2023-11-21T14:01:09;10.10;99.90
25640;DHT22;13497;48.322;16.204;2023-11-21T14:04:03;10.00;99.90
25640;DHT22;13497;48.322;16.204;2023-11-21T14:06:49;9.80;99.90
25640;DHT22;13497;48.322;16.204;2023-11-21T14:09:19;9.70;99.90
25640;DHT22;13497;48.322;16.204;2023-11-21T14:11:57;9.60;99.90
25640;DHT22;13497;48.322;16.204;2023-11-21T14:14:27;9.50;99.90
25640;DHT22;13497;48.322;16.204;2023-11-21T14:16:56;9.50;99.90
25640;DHT22;13497;48.322;16.204;2023-11-21T14:19:23;9.50;99.90
25640;DHT22;13497;48.322;16.204;2023-11-21T14:21:53;9.50;99.90
25640;DHT22;13497;48.322;16.204;2023-11-21T14:24:19;9.40;99.90
25640;DHT22;13497;48.322;16.204;2023-11-21T14:26:45;9.40;99.90
25640;DHT22;13497;48.322;16.204;2023-11-21T14:29:16;9.40;99.90
25640;DHT22;13497;48.322;16.204;2023-11-21T14:31:45;9.30;99.90
25640;DHT22;13497;48.322;16.204;2023-11-21T14:34:11;9.30;99.90
25640;DHT22;13497;48.322;16.204;2023-11-21T14:36:41;9.30;99.90
25640;DHT22;13497;48.322;16.204;2023-11-21T14:39:06;9.30;99.90
25640;DHT22;13497;48.322;16.204;2023-11-21T14:41:35;9.30;99.90
25640;DHT22;13497;48.322;16.204;2023-11-21T14:44:02;9.30;99.90
25640;DHT22;13497;48.322;16.204;2023-11-21T14:46:29;9.30;99.90
25640;DHT22;13497;48.322;16.204;2023-11-21T14:48:55;9.30;99.90
25640;DHT22;13497;48.322;16.204;2023-11-21T14:51:53;9.30;99.90
25640;DHT22;13497;48.322;16.204;2023-11-21T14:54:29;9.30;99.90
25640;DHT22;13497;48.322;16.204;2023-11-21T14:57:15;9.30;99.90
25640;DHT22;13497;48.322;16.204;2023-11-21T14:59:50;9.30;99.90
25640;DHT22;13497;48.322;16.204;2023-11-21T15:02:23;9.30;99.90
25640;DHT22;13497;48.322;16.204;2023-11-21T15:05:09;9.30;99.90
25640;DHT22;13497;48.322;16.204;2023-11-21T15:07:40;9.30;99.90
25640;DHT22;13497;48.322;16.204;2023-11-21T15:10:06;9.20;99.90
25640;DHT22;13497;48.322;16.204;2023-11-21T15:12:36;9.20;99.90
25640;DHT22;13497;48.322;16.204;2023-11-21T15:15:04;9.30;99.90
25640;DHT22;13497;48.322;16.204;2023-11-21T15:17:33;9.30;99.90
25640;DHT22;13497;48.322;16.204;2023-11-21T15:19:59;9.30;99.90
25640;DHT22;13497;48.322;16.204;2023-11-21T15:22:25;9.30;99.90
25640;DHT22;13497;48.322;16.204;2023-11-21T15:24:53;9.20;99.90
25640;DHT22;13497;48.322;16.204;2023-11-21T15:27:19;9.20;99.90
25640;DHT22;13497;48.322;16.204;2023-11-21T15:29:45;9.20;99.90
25640;DHT22;13497;48.322;16.204;2023-11-21T15:32:11;9.10;99.90
25640;DHT22;13497;48.322;16.204;2023-11-21T15:34:37;9.10;99.90
25640;DHT22;13497;48.322;16.204;2023-11-21T15:37:04;9.20;99.90
25640;DHT22;13497;48.322;16.204;2023-11-21T15:39:31;9.20;99.90
25640;DHT22;13497;48.322;16.204;2023-11-21T15:41:58;9.10;99.90